createdAt,value
2022-09-10T06:14:30.582Z,1004.01
2022-09-10T06:24:30.452Z,1004.04
2022-09-10T06:34:30.717Z,1004.09
2022-09-10T06:44:30.604Z,1004.23
2022-09-10T06:54:30.481Z,1004.33
2022-09-10T07:04:30.574Z,1004.56
2022-09-10T07:14:30.580Z,1004.62
2022-09-10T07:24:30.597Z,1004.71
2022-09-10T07:34:30.582Z,1004.71
2022-09-10T07:44:30.523Z,1004.88
2022-09-10T07:54:30.571Z,1004.83
2022-09-10T08:04:34.594Z,1004.85
2022-09-10T08:14:30.594Z,1004.98
2022-09-10T08:24:30.615Z,1004.94
2022-09-10T08:34:30.447Z,1005.07
2022-09-10T08:44:30.571Z,1005.02
2022-09-10T08:54:30.684Z,1005.11
2022-09-10T09:04:30.669Z,1005.05
2022-09-10T09:14:30.616Z,1005.03
2022-09-10T09:24:30.549Z,1005.21
2022-09-10T09:34:30.741Z,1005.14
2022-09-10T09:44:30.573Z,1005.08
2022-09-10T09:55:03.547Z,1004.97
2022-09-10T10:04:30.728Z,1004.90
2022-09-10T10:14:30.807Z,1004.86
2022-09-10T10:24:30.784Z,1004.80
2022-09-10T10:34:30.766Z,1004.88
2022-09-10T10:44:30.808Z,1004.78
2022-09-10T10:54:30.791Z,1004.79
2022-09-10T11:04:30.888Z,1004.69
2022-09-10T11:14:30.791Z,1004.69
2022-09-10T11:24:30.834Z,1004.77
2022-09-10T11:34:30.825Z,1004.68
2022-09-10T11:44:35.798Z,1004.60
2022-09-10T11:54:30.945Z,1004.62
2022-09-10T12:04:30.854Z,1004.49
2022-09-10T12:14:30.992Z,1004.45
2022-09-10T12:32:04.598Z,1004.39
2022-09-10T12:42:04.739Z,1004.38
2022-09-10T12:52:04.559Z,1004.24
2022-09-10T13:02:05.672Z,1004.35
2022-09-10T13:12:04.622Z,1004.19
2022-09-10T13:22:04.734Z,1004.26
2022-09-10T13:32:04.632Z,1004.33
2022-09-10T13:42:04.652Z,1004.32
2022-09-10T13:52:04.707Z,1004.38
2022-09-10T14:02:04.767Z,1004.47
2022-09-10T14:12:04.723Z,1004.48
2022-09-10T14:22:08.252Z,1004.64
2022-09-10T14:32:04.704Z,1004.63
2022-09-10T14:42:04.686Z,1004.56
2022-09-10T14:52:04.889Z,1004.52
2022-09-10T15:02:04.822Z,1004.54
2022-09-10T15:12:04.667Z,1004.52
2022-09-10T15:22:04.737Z,1004.50
2022-09-10T15:32:04.725Z,1004.46
2022-09-10T15:42:04.701Z,1004.48
2022-09-10T15:52:04.701Z,1004.47
2022-09-10T16:02:04.807Z,1004.34
2022-09-10T16:12:04.842Z,1004.41
2022-09-10T16:22:04.993Z,1004.58
2022-09-10T16:32:05.263Z,1004.63
2022-09-10T16:42:05.092Z,1004.88
2022-09-10T16:52:05.203Z,1004.88
2022-09-10T17:02:05.086Z,1005.00
2022-09-10T17:12:05.132Z,1005.03
2022-09-10T17:22:05.129Z,1005.05
2022-09-10T17:32:05.079Z,1005.06
2022-09-10T17:42:05.268Z,1005.16
2022-09-10T17:52:05.109Z,1005.25
2022-09-10T18:02:05.099Z,1005.30
2022-09-10T18:12:04.912Z,1005.43
2022-09-10T18:22:05.333Z,1005.54
2022-09-10T18:32:05.446Z,1005.54
2022-09-10T18:42:05.432Z,1005.66
2022-09-10T18:52:05.478Z,1005.84
2022-09-10T19:02:05.538Z,1005.94
2022-09-10T19:12:05.562Z,1006.09
